createdAt,value
2022-08-25T00:03:05.077Z,88.20
2022-08-25T00:08:10.501Z,88.40
2022-08-25T00:13:13.972Z,88.60
2022-08-25T00:18:19.692Z,88.90
2022-08-25T00:23:22.438Z,89.10
2022-08-25T00:28:26.004Z,89.40
2022-08-25T00:33:28.279Z,89.80
2022-08-25T00:38:30.544Z,89.80
2022-08-25T00:43:38.127Z,90.10
2022-08-25T00:48:43.121Z,90.40
2022-08-25T00:53:45.665Z,90.40
2022-08-25T00:58:49.282Z,90.50
2022-08-25T01:03:51.455Z,90.40
2022-08-25T01:08:54.716Z,90.50
2022-08-25T01:13:59.175Z,90.40
2022-08-25T01:19:01.573Z,90.60
2022-08-25T01:24:06.026Z,90.50
2022-08-25T01:29:22.202Z,90.50
2022-08-25T01:34:25.919Z,90.40
2022-08-25T01:39:31.629Z,90.40
2022-08-25T01:44:35.048Z,90.80
2022-08-25T01:49:38.149Z,90.90
2022-08-25T01:54:41.642Z,90.80
2022-08-25T01:59:44.950Z,90.90
2022-08-25T02:04:47.817Z,91.10
2022-08-25T02:09:51.538Z,91.30
2022-08-25T02:14:53.617Z,91.30
2022-08-25T02:19:57.047Z,91.20
2022-08-25T02:25:00.585Z,91.20
2022-08-25T02:30:02.812Z,91.40
2022-08-25T02:35:06.251Z,91.40
2022-08-25T02:40:11.949Z,91.40
2022-08-25T02:45:14.151Z,91.70
2022-08-25T02:50:16.498Z,91.70
2022-08-25T02:55:22.685Z,91.90
2022-08-25T03:00:24.874Z,91.90
2022-08-25T03:05:27.179Z,92.10
2022-08-25T03:10:30.845Z,92.30
2022-08-25T03:15:34.201Z,92.20
2022-08-25T03:20:36.804Z,92.20
2022-08-25T03:26:02.503Z,92.30
2022-08-25T03:31:05.505Z,92.30
2022-08-25T03:36:08.758Z,92.40
2022-08-25T03:41:16.996Z,92.80
2022-08-25T03:46:20.554Z,92.90
2022-08-25T03:51:24.145Z,92.80
2022-08-25T03:56:28.305Z,92.90
2022-08-25T04:01:31.071Z,93.20
2022-08-25T04:06:33.367Z,93.70
2022-08-25T04:11:37.357Z,94.10
2022-08-25T04:16:39.476Z,94.50
2022-08-25T04:21:42.062Z,94.40
2022-08-25T04:26:48.464Z,91.10
2022-08-25T04:31:51.254Z,91.90
2022-08-25T04:36:53.751Z,91.30
2022-08-25T04:41:57.960Z,90.90
2022-08-25T04:47:00.652Z,91.50
2022-08-25T04:52:03.401Z,90.90
2022-08-25T04:57:07.979Z,91.20
2022-08-25T05:02:12.102Z,91.10
2022-08-25T05:07:14.211Z,91.10
2022-08-25T05:12:17.827Z,91.00
2022-08-25T05:17:19.964Z,90.80
2022-08-25T05:22:24.596Z,90.70
2022-08-25T05:27:28.038Z,90.40
2022-08-25T05:32:30.173Z,90.80
2022-08-25T05:37:32.271Z,90.60
2022-08-25T05:42:35.977Z,90.30
2022-08-25T05:47:38.087Z,90.60
2022-08-25T05:52:40.591Z,90.20
2022-08-25T05:57:44.140Z,88.50
2022-08-25T06:02:46.940Z,87.30
2022-08-25T06:07:50.576Z,87.60
2022-08-25T06:12:54.062Z,87.00
2022-08-25T06:18:01.772Z,86.80
2022-08-25T06:23:04.086Z,86.60
2022-08-25T06:28:07.597Z,86.60
2022-08-25T06:33:09.704Z,86.00
2022-08-25T06:38:12.487Z,85.50
2022-08-25T06:43:15.963Z,85.00
2022-08-25T06:48:18.087Z,85.30
2022-08-25T06:53:20.172Z,84.50
2022-08-25T06:58:23.645Z,84.00
2022-08-25T07:03:26.834Z,84.60
2022-08-25T07:08:28.959Z,84.60
2022-08-25T07:13:32.893Z,85.10
2022-08-25T07:18:36.913Z,85.00
2022-08-25T07:23:39.796Z,84.90
2022-08-25T07:28:47.249Z,84.50
2022-08-25T07:34:03.532Z,84.90
2022-08-25T07:39:06.255Z,83.00
2022-08-25T07:44:11.407Z,82.50
2022-08-25T07:49:16.937Z,82.20
2022-08-25T07:54:19.358Z,82.50
2022-08-25T07:59:23.026Z,82.90
2022-08-25T08:04:25.103Z,82.70
2022-08-25T08:09:27.176Z,83.50
2022-08-25T08:14:30.678Z,83.20
2022-08-25T08:19:32.747Z,82.70
2022-08-25T08:24:44.267Z,81.90
2022-08-25T08:29:48.563Z,81.40
2022-08-25T08:34:51.307Z,80.70
2022-08-25T08:39:53.750Z,78.00
2022-08-25T08:45:09.748Z,78.50
2022-08-25T08:50:27.788Z,77.20
2022-08-25T08:55:37.011Z,78.10
2022-08-25T09:00:51.866Z,78.30
2022-08-25T09:05:57.489Z,76.10
2022-08-25T09:11:04.784Z,74.90
2022-08-25T09:16:38.686Z,74.20
2022-08-25T09:21:50.895Z,73.20
2022-08-25T09:27:04.294Z,71.70
2022-08-25T09:32:09.527Z,70.60
2022-08-25T09:37:12.832Z,70.10
2022-08-25T09:42:15.204Z,70.10
2022-08-25T09:47:24.496Z,68.70
2022-08-25T09:52:35.712Z,70.00
2022-08-25T09:57:45.594Z,69.80
2022-08-25T10:03:09.254Z,69.70
2022-08-25T10:08:16.259Z,68.90
2022-08-25T10:13:23.745Z,68.90
2022-08-25T10:18:30.333Z,71.00
2022-08-25T10:23:47.047Z,68.90
2022-08-25T10:29:02.688Z,68.00
2022-08-25T10:34:20.833Z,67.50
2022-08-25T10:39:40.761Z,65.70
2022-08-25T10:45:13.534Z,65.30
2022-08-25T10:50:29.621Z,64.60
2022-08-25T10:55:40.278Z,62.10
2022-08-25T11:00:50.079Z,61.00
2022-08-25T11:05:57.959Z,59.90
2022-08-25T11:11:06.597Z,58.90
2022-08-25T11:16:17.569Z,58.20
2022-08-25T11:21:27.326Z,58.40
2022-08-25T11:26:36.988Z,57.60
2022-08-25T11:31:43.663Z,57.80
2022-08-25T11:36:53.039Z,57.50
2022-08-25T11:42:09.263Z,57.20
2022-08-25T11:47:29.540Z,56.30
2022-08-25T11:52:51.816Z,55.60
2022-08-25T11:58:14.854Z,53.90
2022-08-25T12:04:01.545Z,54.00
2022-08-25T12:09:22.899Z,54.60
2022-08-25T12:14:47.663Z,55.30
2022-08-25T12:19:53.375Z,54.00
2022-08-25T12:25:03.437Z,50.90
2022-08-25T12:30:20.799Z,50.30
2022-08-25T12:35:29.791Z,49.70
2022-08-25T12:40:37.973Z,48.10
2022-08-25T12:45:44.220Z,46.50
2022-08-25T12:50:50.456Z,45.60
2022-08-25T12:56:02.005Z,45.60
2022-08-25T13:01:35.415Z,44.50
2022-08-25T13:06:54.556Z,45.40
2022-08-25T13:12:05.859Z,46.40
2022-08-25T13:17:09.591Z,44.20
2022-08-25T13:22:16.070Z,43.50
2022-08-25T13:27:23.536Z,41.80
2022-08-25T13:32:32.256Z,41.50
2022-08-25T13:37:37.240Z,41.60
2022-08-25T13:42:42.262Z,40.50
2022-08-25T13:47:46.808Z,39.00
2022-08-25T13:53:06.207Z,39.40
2022-08-25T13:58:24.736Z,37.80
2022-08-25T14:03:33.291Z,38.60
2022-08-25T14:08:38.573Z,40.00
2022-08-25T14:13:45.285Z,40.10
2022-08-25T14:18:50.305Z,39.20
2022-08-25T14:23:53.928Z,37.60
2022-08-25T14:28:57.621Z,36.90
2022-08-25T14:34:02.790Z,36.90
2022-08-25T14:39:08.951Z,36.60
2022-08-25T14:44:13.476Z,36.30
2022-08-25T14:49:24.953Z,34.70
2022-08-25T14:54:28.560Z,34.20
2022-08-25T14:59:33.019Z,33.60
2022-08-25T15:04:37.851Z,33.40
2022-08-25T15:09:39.955Z,33.60
2022-08-25T15:14:43.499Z,33.50
2022-08-25T15:19:47.636Z,33.30
2022-08-25T15:24:50.051Z,32.30
2022-08-25T15:29:53.711Z,33.00
2022-08-25T15:34:56.218Z,32.40
2022-08-25T15:39:59.379Z,32.90
2022-08-25T15:45:02.899Z,36.60
2022-08-25T15:50:10.184Z,35.90
2022-08-25T15:55:12.550Z,39.30
2022-08-25T16:00:17.891Z,39.50
2022-08-25T16:05:25.664Z,40.60
2022-08-25T16:10:28.135Z,43.50
2022-08-25T16:15:33.181Z,43.50
2022-08-25T16:20:37.457Z,43.10
2022-08-25T16:25:41.806Z,41.70
2022-08-25T16:30:52.693Z,40.00
2022-08-25T16:36:07.609Z,38.10
2022-08-25T16:41:13.143Z,37.50
2022-08-25T16:46:20.735Z,36.60
2022-08-25T16:51:25.611Z,35.90
2022-08-25T16:56:35.098Z,35.90
2022-08-25T17:01:39.884Z,35.70
2022-08-25T17:06:51.540Z,35.60
2022-08-25T17:11:56.922Z,36.30
2022-08-25T17:17:00.469Z,36.70
2022-08-25T17:22:02.713Z,38.20
2022-08-25T17:27:05.805Z,38.20
2022-08-25T17:32:10.068Z,40.50
2022-08-25T17:37:13.538Z,43.30
2022-08-25T17:42:16.451Z,44.60
2022-08-25T17:47:22.373Z,46.30
2022-08-25T17:52:25.607Z,47.80
2022-08-25T17:57:28.137Z,49.40
2022-08-25T18:02:31.838Z,50.40
2022-08-25T18:07:34.086Z,51.40
2022-08-25T18:12:36.635Z,52.20
2022-08-25T18:17:40.746Z,53.80
2022-08-25T18:22:44.194Z,54.90
2022-08-25T18:27:46.325Z,56.00
2022-08-25T18:32:51.133Z,56.80
2022-08-25T18:38:11.374Z,58.20
2022-08-25T18:43:15.606Z,59.00
2022-08-25T18:48:26.535Z,59.60
2022-08-25T18:53:37.426Z,62.00
2022-08-25T18:58:55.173Z,64.60
2022-08-25T19:03:59.105Z,64.50
2022-08-25T19:09:01.584Z,65.90
2022-08-25T19:14:04.980Z,66.50
2022-08-25T19:19:16.315Z,67.00
2022-08-25T19:24:19.361Z,67.80
2022-08-25T19:29:21.698Z,67.90
2022-08-25T19:34:32.171Z,67.40
2022-08-25T19:39:39.174Z,68.60
2022-08-25T19:44:43.765Z,69.50
2022-08-25T19:49:48.033Z,69.60
2022-08-25T19:54:50.786Z,70.20
2022-08-25T19:59:57.449Z,71.80
2022-08-25T20:05:00.986Z,73.90
2022-08-25T20:10:06.139Z,74.40
2022-08-25T20:15:10.744Z,74.40
2022-08-25T20:20:17.143Z,74.40
2022-08-25T20:25:28.159Z,75.80
2022-08-25T20:30:48.607Z,76.90
2022-08-25T20:35:57.501Z,78.10
2022-08-25T20:41:05.738Z,77.30
2022-08-25T20:46:11.575Z,77.20
2022-08-25T20:51:21.292Z,77.90
2022-08-25T20:56:29.909Z,80.10
2022-08-25T21:01:40.000Z,80.90
2022-08-25T21:06:45.036Z,81.40
2022-08-25T21:11:48.509Z,81.40
2022-08-25T21:16:52.812Z,82.30
2022-08-25T21:22:01.997Z,82.90
2022-08-25T21:27:04.845Z,83.20
2022-08-25T21:32:08.516Z,83.10
2022-08-25T21:37:13.152Z,83.70
2022-08-25T21:42:15.260Z,84.40
2022-08-25T21:47:21.151Z,84.20
2022-08-25T21:52:25.763Z,84.30
2022-08-25T21:57:29.358Z,84.70
2022-08-25T22:02:31.446Z,85.30
2022-08-25T22:07:41.665Z,83.40
2022-08-25T22:13:05.532Z,83.50
2022-08-25T22:18:07.657Z,83.00
2022-08-25T22:23:19.719Z,85.00
2022-08-25T22:28:27.027Z,85.70
2022-08-25T22:33:41.804Z,86.20
2022-08-25T22:38:46.225Z,85.40
2022-08-25T22:43:49.159Z,86.40
2022-08-25T22:48:51.679Z,87.00
2022-08-25T22:54:04.292Z,87.00
2022-08-25T22:59:08.890Z,87.80
2022-08-25T23:04:11.523Z,88.00
2022-08-25T23:09:16.349Z,88.50
2022-08-25T23:14:21.750Z,88.90
2022-08-25T23:19:23.853Z,89.10
2022-08-25T23:24:32.440Z,89.20
2022-08-25T23:36:13.500Z,89.90
2022-08-25T23:41:25.234Z,90.30
2022-08-25T23:46:29.275Z,90.40
2022-08-25T23:51:37.175Z,90.40
2022-08-25T23:56:44.502Z,90.50
